createdAt,value
2023-05-05T00:00:53.876Z,27.87
2023-05-05T00:01:53.921Z,28.34
2023-05-05T00:02:53.960Z,27.47
2023-05-05T00:03:53.982Z,29.62
2023-05-05T00:04:53.966Z,27.69
2023-05-05T00:05:53.994Z,26.79
2023-05-05T00:06:54.035Z,28.16
2023-05-05T00:07:54.050Z,26.66
2023-05-05T00:08:54.423Z,27.90
2023-05-05T00:09:54.082Z,26.37
2023-05-05T00:10:54.115Z,27.55
2023-05-05T00:11:54.135Z,26.72
2023-05-05T00:12:54.208Z,29.54
2023-05-05T00:13:54.179Z,26.55
2023-05-05T00:14:54.203Z,26.43
2023-05-05T00:15:54.212Z,26.60
2023-05-05T00:16:54.250Z,26.39
2023-05-05T00:17:54.275Z,26.54
2023-05-05T00:18:54.262Z,25.12
2023-05-05T00:19:54.285Z,27.28
2023-05-05T00:20:54.312Z,26.53
2023-05-05T00:21:54.329Z,25.65
2023-05-05T00:22:54.356Z,25.76
2023-05-05T00:23:54.377Z,25.33
2023-05-05T00:24:55.747Z,25.37
2023-05-05T00:25:54.434Z,27.01
2023-05-05T00:26:54.453Z,26.57
2023-05-05T00:27:54.500Z,26.71
2023-05-05T00:28:54.502Z,27.10
2023-05-05T00:29:54.527Z,27.98
2023-05-05T00:30:54.581Z,27.68
2023-05-05T00:31:54.583Z,27.78
2023-05-05T00:32:54.639Z,27.67
2023-05-05T00:33:56.779Z,27.21
2023-05-05T00:34:54.647Z,27.16
2023-05-05T00:35:54.669Z,27.69
2023-05-05T00:36:54.702Z,26.04
2023-05-05T00:37:54.708Z,25.93
2023-05-05T00:38:54.733Z,28.36
2023-05-05T00:39:54.774Z,27.16
2023-05-05T00:40:54.796Z,27.26
2023-05-05T00:41:54.806Z,27.57
2023-05-05T00:42:54.849Z,26.34
2023-05-05T00:43:54.862Z,28.54
2023-05-05T00:44:54.887Z,26.80
2023-05-05T00:45:54.901Z,27.45
2023-05-05T00:46:55.386Z,26.56
2023-05-05T00:47:55.004Z,26.32
2023-05-05T00:48:55.035Z,28.12
2023-05-05T00:49:55.001Z,28.59
2023-05-05T00:50:55.030Z,26.19
2023-05-05T00:51:55.039Z,28.69
2023-05-05T00:52:55.081Z,26.66
2023-05-05T00:53:55.100Z,26.42
2023-05-05T00:54:55.118Z,29.37
2023-05-05T00:55:55.153Z,26.95
2023-05-05T00:56:55.170Z,27.03
2023-05-05T00:57:55.202Z,27.65
2023-05-05T00:58:55.237Z,30.18
2023-05-05T00:59:55.249Z,27.73
2023-05-05T01:00:55.277Z,26.37
2023-05-05T01:01:55.347Z,25.69
2023-05-05T01:02:55.478Z,27.49
2023-05-05T01:03:55.370Z,28.61
2023-05-05T01:04:55.391Z,26.61
2023-05-05T01:05:55.410Z,27.11
2023-05-05T01:06:55.435Z,26.52
2023-05-05T01:07:55.456Z,26.33
2023-05-05T01:08:55.492Z,26.00
2023-05-05T01:10:07.277Z,26.85
2023-05-05T01:10:56.527Z,27.06
2023-05-05T01:11:55.510Z,27.34
2023-05-05T01:12:55.547Z,27.26
2023-05-05T01:13:55.514Z,27.67
2023-05-05T01:14:55.505Z,27.19
2023-05-05T01:15:55.523Z,27.68
2023-05-05T01:16:55.498Z,27.08
2023-05-05T01:17:55.535Z,26.87
2023-05-05T01:18:55.499Z,27.62
2023-05-05T01:19:55.487Z,28.50
2023-05-05T01:20:55.485Z,26.92
2023-05-05T01:21:55.473Z,26.03
2023-05-05T01:22:56.238Z,26.02
2023-05-05T01:23:55.471Z,26.20
2023-05-05T01:24:55.464Z,26.60
2023-05-05T01:25:55.480Z,26.56
2023-05-05T01:26:55.502Z,26.02
2023-05-05T01:27:55.539Z,26.05
2023-05-05T01:28:55.580Z,28.32
2023-05-05T01:29:55.601Z,27.83
2023-05-05T01:30:55.636Z,27.67
2023-05-05T01:31:55.691Z,27.67
2023-05-05T01:32:55.738Z,26.46
2023-05-05T01:33:56.780Z,26.83
2023-05-05T01:34:55.763Z,26.24
2023-05-05T01:35:55.796Z,28.75
2023-05-05T01:36:55.813Z,27.63
2023-05-05T01:37:55.868Z,26.32
2023-05-05T01:38:55.878Z,26.46
2023-05-05T01:39:55.903Z,29.07
2023-05-05T01:40:55.944Z,28.32
2023-05-05T01:41:55.965Z,27.54
2023-05-05T01:42:55.989Z,28.40
2023-05-05T01:43:56.003Z,26.74
2023-05-05T01:44:56.045Z,27.76
2023-05-05T01:45:56.116Z,30.07
2023-05-05T01:46:56.115Z,28.25
2023-05-05T01:47:56.174Z,27.63
2023-05-05T01:48:56.164Z,27.36
2023-05-05T01:49:56.194Z,29.35
2023-05-05T01:50:56.227Z,27.45
2023-05-05T01:51:56.264Z,28.91
2023-05-05T01:52:56.291Z,29.91
2023-05-05T01:53:56.336Z,28.08
2023-05-05T01:54:56.362Z,27.14
2023-05-05T01:55:56.394Z,27.85
2023-05-05T01:56:56.421Z,29.24
2023-05-05T01:57:56.810Z,28.18
2023-05-05T01:58:56.470Z,29.43
2023-05-05T01:59:56.496Z,28.73
2023-05-05T02:00:56.700Z,29.55
2023-05-05T02:01:57.689Z,28.82
2023-05-05T02:02:56.750Z,29.70
2023-05-05T02:03:56.624Z,30.82
2023-05-05T02:04:56.663Z,29.39
2023-05-05T02:05:56.685Z,28.79
2023-05-05T02:06:56.726Z,28.60
2023-05-05T02:07:56.763Z,28.63
2023-05-05T02:08:56.789Z,26.85
2023-05-05T02:09:56.822Z,28.89
2023-05-05T02:10:56.849Z,28.15
2023-05-05T02:11:57.835Z,27.72
2023-05-05T02:12:57.038Z,30.11
2023-05-05T02:13:56.957Z,29.02
2023-05-05T02:14:56.985Z,28.51
2023-05-05T02:15:57.041Z,29.42
2023-05-05T02:16:57.050Z,27.26
2023-05-05T02:17:57.117Z,28.23
2023-05-05T02:18:57.117Z,27.98
2023-05-05T02:19:57.156Z,29.18
2023-05-05T02:20:57.184Z,27.43
2023-05-05T02:21:57.243Z,28.79
2023-05-05T02:22:57.252Z,29.90
2023-05-05T02:23:57.274Z,27.30
2023-05-05T02:24:57.290Z,29.20
2023-05-05T02:25:57.327Z,30.43
2023-05-05T02:26:57.350Z,27.21
2023-05-05T02:27:57.415Z,27.08
2023-05-05T02:28:57.384Z,27.17
2023-05-05T02:29:57.401Z,27.38
2023-05-05T02:30:57.560Z,27.63
2023-05-05T02:31:57.452Z,26.50
2023-05-05T02:32:57.560Z,28.97
2023-05-05T02:33:57.528Z,25.82
2023-05-05T02:34:57.552Z,26.26
2023-05-05T02:35:57.595Z,27.09
2023-05-05T02:36:57.621Z,26.90
2023-05-05T02:37:57.651Z,27.87
2023-05-05T02:38:57.674Z,28.05
2023-05-05T02:39:57.701Z,28.11
2023-05-05T02:40:57.732Z,26.06
2023-05-05T02:41:57.758Z,26.78
2023-05-05T02:42:57.796Z,26.50
2023-05-05T02:43:57.813Z,25.52
2023-05-05T02:44:57.836Z,26.83
2023-05-05T02:45:57.861Z,26.06
2023-05-05T02:46:57.891Z,26.24
2023-05-05T02:47:58.000Z,26.77
2023-05-05T02:48:57.946Z,25.91
2023-05-05T02:49:57.968Z,27.79
2023-05-05T02:50:58.005Z,29.22
2023-05-05T02:51:58.039Z,27.28
2023-05-05T02:52:58.046Z,27.59
2023-05-05T02:53:59.305Z,27.16
2023-05-05T02:54:58.102Z,29.73
2023-05-05T02:55:58.130Z,26.36
2023-05-05T02:56:58.171Z,26.40
2023-05-05T02:57:58.174Z,26.66
2023-05-05T02:58:58.204Z,30.53
2023-05-05T02:59:58.229Z,28.33
2023-05-05T03:00:58.255Z,29.02
2023-05-05T03:01:58.311Z,28.42
2023-05-05T03:02:58.360Z,29.92
2023-05-05T03:03:58.347Z,27.33
2023-05-05T03:04:58.335Z,27.28
2023-05-05T03:05:58.361Z,27.58
2023-05-05T03:06:58.367Z,28.60
2023-05-05T03:07:58.399Z,27.23
2023-05-05T03:08:58.414Z,26.93
2023-05-05T03:10:00.294Z,28.74
2023-05-05T03:10:58.468Z,27.23
2023-05-05T03:11:58.485Z,28.79
2023-05-05T03:12:58.532Z,27.01
2023-05-05T03:13:59.792Z,30.28
2023-05-05T03:14:58.546Z,27.52
2023-05-05T03:15:58.632Z,27.67
2023-05-05T03:16:58.581Z,28.27
2023-05-05T03:17:58.622Z,27.99
2023-05-05T03:18:58.638Z,27.74
2023-05-05T03:19:58.634Z,27.99
2023-05-05T03:20:58.668Z,28.42
2023-05-05T03:21:58.681Z,28.51
2023-05-05T03:22:58.705Z,27.54
2023-05-05T03:23:58.728Z,30.80
2023-05-05T03:24:58.746Z,29.33
2023-05-05T03:25:58.786Z,29.34
2023-05-05T03:26:58.805Z,30.37
2023-05-05T03:27:58.827Z,26.33
2023-05-05T03:28:58.866Z,29.25
2023-05-05T03:29:58.873Z,28.52
2023-05-05T03:30:58.905Z,30.98
2023-05-05T03:31:58.957Z,29.96
2023-05-05T03:32:58.980Z,29.44
2023-05-05T03:33:58.975Z,30.68
2023-05-05T03:34:58.996Z,29.78
2023-05-05T03:35:59.038Z,28.88
2023-05-05T03:36:59.055Z,29.75
2023-05-05T03:37:59.076Z,28.80
2023-05-05T03:38:59.096Z,29.87
2023-05-05T03:40:00.334Z,28.79
2023-05-05T03:40:59.325Z,29.59
2023-05-05T03:41:59.174Z,29.92
2023-05-05T03:42:59.212Z,29.34
2023-05-05T03:43:59.216Z,29.29
2023-05-05T03:44:59.605Z,28.67
2023-05-05T03:45:59.368Z,30.29
2023-05-05T03:46:59.291Z,29.23
2023-05-05T03:47:59.665Z,28.77
2023-05-05T03:48:59.344Z,29.58
2023-05-05T03:49:59.704Z,28.32
2023-05-05T03:50:59.384Z,29.24
2023-05-05T03:51:59.402Z,28.05
2023-05-05T03:52:59.429Z,27.31
2023-05-05T03:53:59.454Z,26.65
2023-05-05T03:54:59.876Z,26.07
2023-05-05T03:55:59.498Z,25.38
2023-05-05T03:56:59.521Z,27.72
2023-05-05T03:57:59.553Z,27.36
2023-05-05T03:58:59.574Z,26.94
2023-05-05T03:59:59.599Z,28.78
2023-05-05T04:00:59.626Z,27.71
2023-05-05T04:01:59.661Z,27.49
2023-05-05T04:02:59.737Z,25.71
2023-05-05T04:03:59.733Z,27.62
2023-05-05T04:04:59.705Z,27.96
2023-05-05T04:05:59.729Z,26.52
2023-05-05T04:06:59.752Z,28.22
2023-05-05T04:07:59.771Z,27.61
2023-05-05T04:08:59.798Z,26.74
2023-05-05T04:09:59.831Z,26.94
2023-05-05T04:10:59.859Z,27.88
2023-05-05T04:11:59.874Z,28.56
2023-05-05T04:12:59.959Z,28.56
2023-05-05T04:13:59.932Z,27.69
2023-05-05T04:14:59.956Z,26.02
2023-05-05T04:16:00.065Z,28.25
2023-05-05T04:17:00.004Z,28.79
2023-05-05T04:18:00.102Z,26.98
2023-05-05T04:19:00.100Z,28.88
2023-05-05T04:20:00.147Z,28.32
2023-05-05T04:21:00.832Z,27.13
2023-05-05T04:22:00.265Z,26.47
2023-05-05T04:23:00.167Z,27.12
2023-05-05T04:24:00.205Z,26.59
2023-05-05T04:25:00.251Z,26.33
2023-05-05T04:26:00.252Z,25.67
2023-05-05T04:27:00.254Z,26.66
2023-05-05T04:28:00.284Z,25.94
2023-05-05T04:29:00.299Z,26.02
2023-05-05T04:30:00.332Z,26.32
2023-05-05T04:31:00.392Z,25.91
2023-05-05T04:32:00.420Z,26.62
2023-05-05T04:33:00.457Z,27.07
2023-05-05T04:34:00.977Z,27.30
2023-05-05T04:35:00.440Z,28.99
2023-05-05T04:36:00.463Z,28.55
2023-05-05T04:37:01.883Z,27.98
2023-05-05T04:38:00.497Z,27.91
2023-05-05T04:39:00.559Z,26.46
2023-05-05T04:40:00.528Z,25.73
2023-05-05T04:41:00.555Z,27.63
2023-05-05T04:42:00.584Z,28.01
2023-05-05T04:43:01.904Z,26.21
2023-05-05T04:44:00.642Z,27.68
2023-05-05T04:45:00.751Z,27.38
2023-05-05T04:46:00.660Z,27.91
2023-05-05T04:47:00.667Z,26.19
2023-05-05T04:48:00.727Z,26.94
2023-05-05T04:49:00.705Z,26.49
2023-05-05T04:50:00.750Z,28.05
2023-05-05T04:51:00.746Z,27.84
2023-05-05T04:52:00.772Z,25.50
2023-05-05T04:53:00.808Z,26.91
2023-05-05T04:54:00.910Z,27.21
2023-05-05T04:55:00.840Z,28.07
2023-05-05T04:56:00.856Z,27.49
2023-05-05T04:57:00.874Z,27.66
2023-05-05T04:58:00.891Z,25.21
2023-05-05T04:59:00.920Z,27.07
2023-05-05T05:00:01.090Z,27.70
2023-05-05T05:01:00.962Z,26.66
2023-05-05T05:02:01.026Z,29.39
2023-05-05T05:03:01.092Z,27.23
2023-05-05T05:04:01.039Z,25.38
2023-05-05T05:05:01.045Z,26.14
2023-05-05T05:06:01.068Z,27.07
2023-05-05T05:07:01.079Z,26.86
2023-05-05T05:08:01.114Z,26.44
2023-05-05T05:09:01.138Z,27.08
2023-05-05T05:10:01.168Z,26.50
2023-05-05T05:11:01.207Z,26.50
2023-05-05T05:12:01.208Z,26.05
2023-05-05T05:13:01.258Z,25.55
2023-05-05T05:14:01.260Z,26.92
2023-05-05T05:15:01.278Z,25.89
2023-05-05T05:16:01.329Z,27.19
2023-05-05T05:17:01.314Z,28.60
2023-05-05T05:18:01.360Z,27.75
2023-05-05T05:19:01.878Z,27.54
2023-05-05T05:20:01.385Z,27.71
2023-05-05T05:21:01.428Z,25.79
2023-05-05T05:22:01.473Z,28.53
2023-05-05T05:23:01.503Z,22.74
2023-05-05T05:24:01.504Z,25.00
2023-05-05T05:25:01.563Z,25.00
2023-05-05T05:26:01.596Z,24.99
2023-05-05T05:27:01.700Z,28.72
2023-05-05T05:28:10.241Z,24.98
2023-05-05T05:29:02.707Z,16.92
2023-05-05T05:30:01.711Z,4.16
2023-05-05T05:31:01.721Z,0.00
2023-05-05T05:32:01.756Z,0.00
2023-05-05T05:33:01.753Z,0.00
2023-05-05T05:34:01.713Z,2.40
2023-05-05T05:35:01.734Z,29.39
2023-05-05T05:36:01.740Z,27.40
2023-05-05T05:37:01.744Z,27.64
2023-05-05T05:38:01.745Z,29.11
2023-05-05T05:39:01.757Z,30.64
2023-05-05T05:40:01.798Z,29.40
2023-05-05T05:41:01.812Z,25.55
2023-05-05T05:42:01.840Z,25.00
2023-05-05T05:43:01.839Z,38.85
2023-05-05T05:44:01.848Z,37.10
2023-05-05T05:45:01.872Z,37.68
2023-05-05T05:46:01.916Z,41.61
2023-05-05T05:47:01.905Z,47.99
2023-05-05T05:48:01.964Z,43.75
2023-05-05T05:49:01.947Z,48.90
2023-05-05T05:50:01.949Z,40.77
2023-05-05T05:51:01.957Z,38.88
2023-05-05T05:52:01.964Z,33.88
2023-05-05T05:53:01.992Z,36.60
2023-05-05T05:54:02.002Z,38.48
2023-05-05T05:55:02.031Z,33.03
2023-05-05T05:56:02.040Z,32.90
2023-05-05T05:57:02.066Z,19.67
2023-05-05T05:58:02.100Z,15.38
2023-05-05T05:59:02.120Z,8.09
2023-05-05T06:00:02.388Z,11.29
2023-05-05T06:01:02.178Z,25.00
2023-05-05T06:02:02.251Z,20.23
2023-05-05T06:03:02.282Z,26.89
2023-05-05T06:04:02.359Z,25.84
2023-05-05T06:05:02.313Z,25.00
2023-05-05T06:06:02.348Z,29.93
2023-05-05T06:07:02.366Z,36.39
2023-05-05T06:08:02.396Z,37.13
2023-05-05T06:09:02.411Z,43.18
2023-05-05T06:10:14.435Z,45.16
2023-05-05T06:11:03.422Z,45.35
2023-05-05T06:12:02.422Z,47.30
2023-05-05T06:13:02.474Z,49.08
2023-05-05T06:14:02.435Z,56.14
2023-05-05T06:15:02.424Z,61.85
2023-05-05T06:16:02.417Z,60.73
2023-05-05T06:17:02.416Z,63.95
2023-05-05T06:18:02.410Z,57.69
2023-05-05T06:19:02.393Z,71.78
2023-05-05T06:20:02.401Z,71.60
2023-05-05T06:21:02.389Z,87.64
2023-05-05T06:22:02.392Z,66.52
2023-05-05T06:23:02.394Z,42.30
2023-05-05T06:24:03.394Z,42.79
2023-05-05T06:25:02.381Z,42.36
2023-05-05T06:26:02.379Z,39.01
2023-05-05T06:27:02.367Z,46.20
2023-05-05T06:28:02.362Z,34.92
2023-05-05T06:29:02.937Z,39.96
2023-05-05T06:30:02.337Z,41.97
2023-05-05T06:31:03.376Z,42.04
2023-05-05T06:32:02.330Z,44.05
2023-05-05T06:33:02.362Z,43.01
2023-05-05T06:34:02.292Z,42.99
2023-05-05T06:35:02.305Z,48.61
2023-05-05T06:36:02.272Z,44.84
2023-05-05T06:37:02.298Z,53.26
2023-05-05T06:38:02.278Z,62.17
2023-05-05T06:39:02.237Z,68.75
2023-05-05T06:40:02.246Z,67.34
2023-05-05T06:41:02.237Z,62.95
2023-05-05T06:42:02.270Z,83.75
2023-05-05T06:43:02.298Z,108.31
2023-05-05T06:44:02.323Z,117.32
2023-05-05T06:45:02.358Z,129.82
2023-05-05T06:46:02.354Z,131.00
2023-05-05T06:47:02.461Z,141.65
2023-05-05T06:48:04.100Z,145.60
2023-05-05T06:49:04.056Z,145.99
2023-05-05T06:50:02.337Z,148.38
2023-05-05T06:51:02.937Z,155.57
2023-05-05T06:52:02.311Z,170.40
2023-05-05T06:53:02.275Z,190.30
2023-05-05T06:54:02.257Z,200.18
2023-05-05T06:55:02.278Z,207.13
2023-05-05T06:56:02.203Z,207.12
2023-05-05T06:57:02.189Z,213.17
2023-05-05T06:58:02.183Z,222.10
2023-05-05T06:59:02.145Z,228.03
2023-05-05T07:00:02.185Z,231.45
2023-05-05T07:01:02.141Z,237.13
2023-05-05T07:02:02.166Z,246.13
2023-05-05T07:03:02.136Z,246.49
2023-05-05T07:04:02.130Z,246.88
2023-05-05T07:05:02.560Z,249.98
2023-05-05T07:06:02.027Z,250.00
2023-05-05T07:07:02.017Z,249.63
2023-05-05T07:08:02.001Z,250.00
2023-05-05T07:09:01.976Z,247.98
2023-05-05T07:10:01.969Z,250.00
2023-05-05T07:11:01.973Z,247.66
2023-05-05T07:12:01.950Z,247.37
2023-05-05T07:13:02.029Z,247.82
2023-05-05T07:14:01.887Z,249.34
2023-05-05T07:15:07.036Z,249.16
2023-05-05T07:16:02.864Z,249.52
2023-05-05T07:17:01.836Z,251.36
2023-05-05T07:18:01.961Z,253.27
2023-05-05T07:19:01.759Z,260.12
2023-05-05T07:20:02.556Z,270.03
2023-05-05T07:21:01.706Z,255.72
2023-05-05T07:22:02.539Z,246.93
2023-05-05T07:23:01.681Z,249.14
2023-05-05T07:24:01.643Z,244.06
2023-05-05T07:25:01.636Z,244.42
2023-05-05T07:26:01.597Z,246.22
2023-05-05T07:27:01.579Z,249.01
2023-05-05T07:28:01.558Z,253.93
2023-05-05T07:29:01.527Z,260.87
2023-05-05T07:30:01.506Z,248.72
2023-05-05T07:31:01.474Z,249.09
2023-05-05T07:32:01.524Z,247.91
2023-05-05T07:33:01.526Z,248.37
2023-05-05T07:34:01.615Z,249.23
2023-05-05T07:35:01.390Z,250.00
2023-05-05T07:36:01.372Z,248.20
2023-05-05T07:37:01.356Z,249.40
2023-05-05T07:38:01.332Z,249.18
2023-05-05T07:39:01.329Z,249.05
2023-05-05T07:40:01.297Z,248.28
2023-05-05T07:41:01.271Z,249.88
2023-05-05T07:42:01.267Z,250.00
2023-05-05T07:43:01.232Z,250.00
2023-05-05T07:44:01.224Z,250.00
2023-05-05T07:45:01.201Z,248.93
2023-05-05T07:46:01.241Z,249.87
2023-05-05T07:47:01.196Z,248.72
2023-05-05T07:48:01.184Z,249.53
2023-05-05T07:49:01.376Z,250.00
2023-05-05T07:50:01.298Z,249.86
2023-05-05T07:51:01.136Z,248.92
2023-05-05T07:52:01.097Z,248.03
2023-05-05T07:53:10.571Z,250.00
2023-05-05T07:54:02.048Z,250.16
2023-05-05T07:55:01.050Z,251.00
2023-05-05T07:56:01.008Z,254.41
2023-05-05T07:57:00.998Z,259.27
2023-05-05T07:58:00.973Z,265.65
2023-05-05T07:59:00.959Z,252.94
2023-05-05T08:00:01.164Z,249.25
2023-05-05T08:01:00.900Z,249.23
2023-05-05T08:02:00.883Z,250.00
2023-05-05T08:03:00.877Z,249.25
2023-05-05T08:04:00.912Z,249.27
2023-05-05T08:05:00.851Z,249.76
2023-05-05T08:06:00.917Z,249.64
2023-05-05T08:07:01.555Z,250.00
2023-05-05T08:08:00.756Z,249.54
2023-05-05T08:09:00.759Z,250.00
2023-05-05T08:10:00.714Z,249.55
2023-05-05T08:11:00.693Z,248.76
2023-05-05T08:12:00.669Z,248.88
2023-05-05T08:13:00.687Z,250.00
2023-05-05T08:14:00.647Z,249.79
2023-05-05T08:15:00.611Z,250.00
2023-05-05T08:16:00.674Z,249.31
2023-05-05T08:17:00.557Z,244.85
2023-05-05T08:18:00.623Z,244.10
2023-05-05T08:19:00.615Z,240.92
2023-05-05T08:20:00.480Z,237.44
2023-05-05T08:21:00.461Z,229.15
2023-05-05T08:22:01.365Z,225.65
2023-05-05T08:23:00.419Z,220.27
2023-05-05T08:24:00.423Z,216.91
2023-05-05T08:25:00.373Z,216.03
2023-05-05T08:26:00.350Z,217.27
2023-05-05T08:27:00.322Z,215.58
2023-05-05T08:28:00.300Z,220.15
2023-05-05T08:29:00.327Z,219.64
2023-05-05T08:30:00.340Z,220.76
2023-05-05T08:31:00.419Z,222.89
2023-05-05T08:32:00.535Z,224.57
2023-05-05T08:33:01.354Z,226.22
2023-05-05T08:34:00.491Z,226.01
2023-05-05T08:35:00.531Z,226.69
2023-05-05T08:36:00.559Z,228.26
2023-05-05T08:37:00.609Z,228.80
2023-05-05T08:38:00.721Z,233.29
2023-05-05T08:39:00.658Z,233.86
2023-05-05T08:40:00.715Z,234.94
2023-05-05T08:41:00.750Z,236.09
2023-05-05T08:42:00.779Z,237.67
2023-05-05T08:43:00.852Z,239.12
2023-05-05T08:44:00.864Z,242.22
2023-05-05T08:45:01.163Z,244.00
2023-05-05T08:46:00.956Z,244.20
2023-05-05T08:47:01.042Z,248.16
2023-05-05T08:48:01.066Z,248.55
2023-05-05T08:49:01.077Z,249.51
2023-05-05T08:50:01.087Z,249.80
2023-05-05T08:51:03.300Z,249.65
2023-05-05T08:52:01.098Z,249.79
2023-05-05T08:53:01.110Z,250.26
2023-05-05T08:54:01.161Z,251.80
2023-05-05T08:55:01.041Z,254.53
2023-05-05T08:56:01.002Z,259.23
2023-05-05T08:57:00.995Z,250.00
2023-05-05T08:58:00.993Z,249.48
2023-05-05T08:59:00.944Z,249.99
2023-05-05T09:00:01.174Z,248.86
2023-05-05T09:01:00.996Z,249.51
2023-05-05T09:02:00.989Z,248.96
2023-05-05T09:03:01.367Z,250.00
2023-05-05T09:04:01.083Z,249.26
2023-05-05T09:05:01.120Z,249.67
2023-05-05T09:06:01.148Z,249.94
2023-05-05T09:07:01.190Z,250.00
2023-05-05T09:08:01.218Z,250.00
2023-05-05T09:09:01.245Z,249.39
2023-05-05T09:10:01.349Z,249.46
2023-05-05T09:11:01.316Z,249.41
2023-05-05T09:12:01.347Z,249.14
2023-05-05T09:13:01.482Z,249.36
2023-05-05T09:14:01.409Z,249.92
2023-05-05T09:15:01.447Z,249.72
2023-05-05T09:16:01.476Z,250.00
2023-05-05T09:17:01.560Z,246.65
2023-05-05T09:18:01.630Z,243.68
2023-05-05T09:19:01.521Z,243.81
2023-05-05T09:20:01.508Z,243.84
2023-05-05T09:21:01.491Z,243.17
2023-05-05T09:22:01.474Z,242.62
2023-05-05T09:23:01.457Z,241.65
2023-05-05T09:24:07.780Z,241.73
2023-05-05T09:25:02.407Z,241.80
2023-05-05T09:26:01.470Z,241.90
2023-05-05T09:27:01.396Z,242.17
2023-05-05T09:28:02.043Z,242.70
2023-05-05T09:29:02.092Z,243.73
2023-05-05T09:30:01.347Z,243.22
2023-05-05T09:31:01.338Z,242.89
2023-05-05T09:32:01.295Z,242.34
2023-05-05T09:33:01.325Z,241.10
2023-05-05T09:34:01.269Z,242.01
2023-05-05T09:35:01.256Z,240.64
2023-05-05T09:36:01.240Z,240.39
2023-05-05T09:37:01.212Z,240.65
2023-05-05T09:38:01.187Z,240.57
2023-05-05T09:39:01.197Z,240.32
2023-05-05T09:40:01.208Z,240.95
2023-05-05T09:41:01.177Z,240.35
2023-05-05T09:42:01.309Z,240.40
2023-05-05T09:43:01.221Z,240.62
2023-05-05T09:44:01.097Z,240.08
2023-05-05T09:45:01.164Z,238.42
2023-05-05T09:46:01.161Z,240.12
2023-05-05T09:47:01.114Z,239.63
2023-05-05T09:48:01.173Z,239.76
2023-05-05T09:49:01.114Z,238.31
2023-05-05T09:50:01.112Z,238.59
2023-05-05T09:51:01.104Z,237.30
2023-05-05T09:52:01.083Z,238.58
2023-05-05T09:53:01.096Z,238.05
2023-05-05T09:54:01.077Z,238.42
2023-05-05T09:55:02.067Z,238.08
2023-05-05T09:56:01.100Z,236.76
2023-05-05T09:57:01.077Z,237.54
2023-05-05T09:58:02.071Z,237.39
2023-05-05T09:59:01.064Z,237.40
2023-05-05T10:00:01.245Z,238.02
2023-05-05T10:01:01.064Z,236.37
2023-05-05T10:02:01.130Z,236.56
2023-05-05T10:03:01.144Z,237.12
2023-05-05T10:04:02.034Z,236.62
2023-05-05T10:05:02.431Z,236.33
2023-05-05T10:06:02.085Z,235.85
2023-05-05T10:07:01.091Z,235.20
2023-05-05T10:08:01.107Z,236.15
2023-05-05T10:09:01.119Z,235.44
2023-05-05T10:10:01.134Z,235.85
2023-05-05T10:11:01.153Z,234.82
2023-05-05T10:12:01.149Z,234.95
2023-05-05T10:13:02.179Z,234.42
2023-05-05T10:14:01.273Z,235.77
2023-05-05T10:15:01.170Z,246.02
2023-05-05T10:16:01.200Z,243.98
2023-05-05T10:17:01.167Z,244.52
2023-05-05T10:18:07.852Z,236.93
2023-05-05T10:19:02.185Z,223.63
2023-05-05T10:20:01.182Z,195.97
2023-05-05T10:21:01.176Z,174.49
2023-05-05T10:22:01.123Z,153.66
2023-05-05T10:23:01.091Z,144.33
2023-05-05T10:24:01.059Z,137.88
2023-05-05T10:25:01.038Z,137.15
2023-05-05T10:26:01.022Z,125.28
2023-05-05T10:27:01.008Z,132.06
2023-05-05T10:28:00.973Z,119.85
2023-05-05T10:29:00.955Z,120.00
2023-05-05T10:30:01.213Z,119.82
2023-05-05T10:31:01.019Z,125.31
2023-05-05T10:32:01.084Z,119.79
2023-05-05T10:33:18.304Z,113.10
2023-05-05T10:34:02.175Z,105.87
2023-05-05T10:35:02.108Z,113.10
2023-05-05T10:36:01.036Z,109.95
2023-05-05T10:37:01.012Z,108.15
2023-05-05T10:38:01.006Z,99.16
2023-05-05T10:39:00.992Z,94.84
2023-05-05T10:40:00.956Z,104.20
2023-05-05T10:41:00.931Z,98.25
2023-05-05T10:42:00.916Z,85.87
2023-05-05T10:43:00.873Z,81.78
2023-05-05T10:44:03.647Z,82.74
2023-05-05T10:45:01.238Z,79.17
2023-05-05T10:46:00.973Z,72.71
2023-05-05T10:47:00.762Z,71.49
2023-05-05T10:48:00.864Z,73.81
2023-05-05T10:49:00.761Z,70.84
2023-05-05T10:50:00.698Z,71.66
2023-05-05T10:51:00.633Z,54.98
2023-05-05T10:52:00.634Z,45.60
2023-05-05T10:53:00.588Z,42.85
2023-05-05T10:54:00.629Z,39.76
2023-05-05T10:55:00.545Z,29.94
2023-05-05T10:56:00.510Z,29.30
2023-05-05T10:57:00.487Z,25.00
2023-05-05T10:58:00.484Z,31.21
2023-05-05T10:59:00.952Z,32.84
2023-05-05T11:00:00.404Z,33.75
2023-05-05T11:01:00.407Z,30.39
2023-05-05T11:02:00.345Z,26.87
2023-05-05T11:03:00.428Z,25.00
2023-05-05T11:04:00.353Z,23.08
2023-05-05T11:05:00.288Z,25.00
2023-05-05T11:06:00.263Z,24.92
2023-05-05T11:07:00.243Z,25.31
2023-05-05T11:08:00.234Z,25.03
2023-05-05T11:09:00.205Z,25.00
2023-05-05T11:10:00.229Z,26.06
2023-05-05T11:11:00.160Z,27.51
2023-05-05T11:12:00.163Z,27.49
2023-05-05T11:13:00.200Z,28.37
2023-05-05T11:14:00.161Z,29.73
2023-05-05T11:15:00.153Z,31.39
2023-05-05T11:16:00.108Z,36.42
2023-05-05T11:17:00.131Z,38.07
2023-05-05T11:18:00.086Z,37.23
2023-05-05T11:19:00.060Z,38.69
2023-05-05T11:20:00.022Z,41.01
2023-05-05T11:21:00.017Z,45.39
2023-05-05T11:21:59.992Z,48.37
2023-05-05T11:22:59.958Z,51.03
2023-05-05T11:23:59.947Z,55.66
2023-05-05T11:24:59.929Z,55.84
2023-05-05T11:25:59.953Z,58.41
2023-05-05T11:26:59.976Z,65.59
2023-05-05T11:28:00.018Z,67.60
2023-05-05T11:29:00.052Z,66.51
2023-05-05T11:30:00.129Z,66.58
2023-05-05T11:31:00.201Z,70.81
2023-05-05T11:32:00.178Z,71.40
2023-05-05T11:33:00.257Z,72.97
2023-05-05T11:34:00.328Z,75.43
2023-05-05T11:35:00.300Z,76.15
2023-05-05T11:36:00.379Z,78.53
2023-05-05T11:37:00.376Z,83.21
2023-05-05T11:38:00.473Z,83.43
2023-05-05T11:39:00.444Z,85.65
2023-05-05T11:40:00.495Z,86.73
2023-05-05T11:41:00.531Z,88.58
2023-05-05T11:42:02.296Z,88.50
2023-05-05T11:43:01.177Z,91.69
2023-05-05T11:44:00.540Z,94.35
2023-05-05T11:45:00.531Z,95.71
2023-05-05T11:46:00.550Z,96.32
2023-05-05T11:47:00.493Z,96.03
2023-05-05T11:48:00.529Z,96.92
2023-05-05T11:49:01.076Z,98.41
2023-05-05T11:50:00.549Z,100.54
2023-05-05T11:51:00.451Z,101.95
2023-05-05T11:52:00.461Z,101.86
2023-05-05T11:53:00.426Z,102.53
2023-05-05T11:54:00.417Z,104.25
2023-05-05T11:55:00.412Z,106.03
2023-05-05T11:56:00.394Z,105.93
2023-05-05T11:57:00.427Z,106.66
2023-05-05T11:58:00.373Z,109.37
2023-05-05T11:59:00.363Z,109.58
2023-05-05T12:00:00.358Z,110.02
2023-05-05T12:01:00.331Z,111.38
2023-05-05T12:02:00.316Z,113.46
2023-05-05T12:03:00.414Z,112.05
2023-05-05T12:04:00.402Z,115.11
2023-05-05T12:05:00.405Z,113.69
2023-05-05T12:06:00.343Z,115.96
2023-05-05T12:07:00.261Z,117.31
2023-05-05T12:08:00.239Z,116.66
2023-05-05T12:09:00.216Z,117.91
2023-05-05T12:10:00.240Z,118.35
2023-05-05T12:11:00.202Z,117.75
2023-05-05T12:12:00.179Z,118.80
2023-05-05T12:13:01.212Z,118.93
2023-05-05T12:14:00.152Z,119.50
2023-05-05T12:15:00.140Z,120.51
2023-05-05T12:16:00.192Z,121.88
2023-05-05T12:17:00.109Z,124.10
2023-05-05T12:18:02.455Z,124.99
2023-05-05T12:19:00.103Z,125.49
2023-05-05T12:20:00.085Z,125.30
2023-05-05T12:21:00.116Z,126.96
2023-05-05T12:22:00.134Z,125.66
2023-05-05T12:23:00.050Z,126.78
2023-05-05T12:24:00.047Z,125.54
2023-05-05T12:25:00.028Z,127.92
2023-05-05T12:26:00.011Z,130.90
2023-05-05T12:26:59.992Z,129.83
2023-05-05T12:27:59.985Z,133.36
2023-05-05T12:28:59.975Z,134.33
2023-05-05T12:29:59.954Z,135.56
2023-05-05T12:31:00.116Z,138.57
2023-05-05T12:32:00.021Z,141.65
2023-05-05T12:32:59.997Z,142.47
2023-05-05T12:33:59.929Z,143.84
2023-05-05T12:34:59.912Z,145.25
2023-05-05T12:35:59.900Z,145.70
2023-05-05T12:36:59.902Z,145.94
2023-05-05T12:37:59.964Z,146.11
2023-05-05T12:38:59.887Z,145.25
2023-05-05T12:39:59.865Z,145.74
2023-05-05T12:40:59.849Z,146.44
2023-05-05T12:41:59.821Z,147.63
2023-05-05T12:42:59.812Z,148.43
2023-05-05T12:43:59.796Z,148.12